createdAt,value
2019-01-27T00:00:43.000Z,25.11
2019-01-27T00:10:43.000Z,25.09
2019-01-27T00:20:43.000Z,25.03
2019-01-27T00:30:43.000Z,24.99
2019-01-27T00:40:43.000Z,24.93
2019-01-27T00:50:43.000Z,24.88
2019-01-27T01:00:43.000Z,24.79
2019-01-27T01:10:43.000Z,24.72
2019-01-27T01:20:43.000Z,24.66
2019-01-27T01:30:43.000Z,24.6
2019-01-27T01:40:43.000Z,24.54
2019-01-27T01:50:43.000Z,24.5
2019-01-27T02:00:43.000Z,24.46
2019-01-27T02:10:43.000Z,24.5
2019-01-27T02:20:43.000Z,24.47
2019-01-27T02:30:43.000Z,24.39
2019-01-27T02:40:43.000Z,24.39
2019-01-27T02:50:43.000Z,24.3
2019-01-27T03:00:43.000Z,24.23
2019-01-27T03:10:43.000Z,24.19
2019-01-27T03:20:43.000Z,24.19
2019-01-27T03:30:43.000Z,24.12
2019-01-27T03:40:43.000Z,24.08
2019-01-27T03:50:43.000Z,24.03
2019-01-27T04:00:43.000Z,24.02
2019-01-27T04:10:44.000Z,24
2019-01-27T04:20:44.000Z,23.96
2019-01-27T04:30:44.000Z,23.87
2019-01-27T04:40:44.000Z,23.81
2019-01-27T04:50:44.000Z,23.74
2019-01-27T05:00:44.000Z,23.73
2019-01-27T05:10:44.000Z,23.72
2019-01-27T05:20:44.000Z,23.68
2019-01-27T05:30:44.000Z,23.71
2019-01-27T05:40:44.000Z,23.7
2019-01-27T05:50:44.000Z,23.67
2019-01-27T06:00:45.000Z,23.75
2019-01-27T06:10:44.000Z,23.78
2019-01-27T06:20:44.000Z,23.83
2019-01-27T06:30:48.000Z,23.78
2019-01-27T06:40:44.000Z,23.84
2019-01-27T06:50:44.000Z,23.8
2019-01-27T07:00:44.000Z,23.9
2019-01-27T07:10:44.000Z,23.87
2019-01-27T07:20:44.000Z,23.87
2019-01-27T07:30:44.000Z,23.89
2019-01-27T07:40:44.000Z,23.99
2019-01-27T07:50:44.000Z,24.02
2019-01-27T08:00:44.000Z,24.08
2019-01-27T08:10:44.000Z,24.08
2019-01-27T08:20:44.000Z,24.07
2019-01-27T08:30:44.000Z,24.13
2019-01-27T08:40:44.000Z,24.15
2019-01-27T08:50:44.000Z,24.23
2019-01-27T09:00:44.000Z,24.25
2019-01-27T09:10:46.000Z,24.25
2019-01-27T09:20:44.000Z,24.3
2019-01-27T09:30:44.000Z,24.29
2019-01-27T09:40:44.000Z,24.31
2019-01-27T09:50:44.000Z,24.34
2019-01-27T10:00:44.000Z,24.36
2019-01-27T10:10:44.000Z,24.41
2019-01-27T10:20:44.000Z,24.38
2019-01-27T10:30:44.000Z,24.48
2019-01-27T10:40:44.000Z,24.49
2019-01-27T10:50:44.000Z,24.47
2019-01-27T11:00:44.000Z,24.5
2019-01-27T11:10:44.000Z,24.45
2019-01-27T11:20:44.000Z,24.58
2019-01-27T11:30:44.000Z,24.57
2019-01-27T11:40:44.000Z,24.57
2019-01-27T11:50:44.000Z,24.69
2019-01-27T12:00:44.000Z,24.66
2019-01-27T12:10:44.000Z,24.76
2019-01-27T12:30:45.000Z,24.8
2019-01-27T12:40:45.000Z,24.8
2019-01-27T12:50:45.000Z,24.84
2019-01-27T13:00:45.000Z,24.87
2019-01-27T13:10:45.000Z,24.91
2019-01-27T13:20:45.000Z,24.89
2019-01-27T13:30:45.000Z,24.94
2019-01-27T13:40:45.000Z,24.91
2019-01-27T13:50:46.000Z,24.91
2019-01-27T14:00:45.000Z,24.96
2019-01-27T14:10:45.000Z,24.99
2019-01-27T14:20:45.000Z,24.94
2019-01-27T14:30:45.000Z,24.99
2019-01-27T14:40:45.000Z,25.01
2019-01-27T14:50:45.000Z,25
2019-01-27T15:00:45.000Z,25.05
2019-01-27T15:10:45.000Z,25.06
2019-01-27T15:20:46.000Z,24.99
2019-01-27T15:30:46.000Z,25.1
2019-01-27T15:40:48.000Z,24.98
2019-01-27T15:50:45.000Z,25.03
2019-01-27T16:00:45.000Z,25.02
2019-01-27T16:10:45.000Z,24.97
2019-01-27T16:30:45.000Z,25.03
2019-01-27T16:40:45.000Z,24.98
2019-01-27T16:50:45.000Z,25
2019-01-27T17:00:45.000Z,24.98
2019-01-27T17:10:45.000Z,25.18
2019-01-27T17:20:45.000Z,25.09
2019-01-27T17:30:45.000Z,24.98
2019-01-27T17:40:45.000Z,25.1
2019-01-27T17:50:45.000Z,25.06
2019-01-27T18:00:45.000Z,25.14
2019-01-27T18:10:45.000Z,25.17
2019-01-27T18:20:45.000Z,25.18
2019-01-27T18:30:45.000Z,25.17
2019-01-27T18:40:45.000Z,25.18
2019-01-27T18:50:45.000Z,25.26
2019-01-27T19:00:46.000Z,25.19
2019-01-27T19:10:45.000Z,25.25
2019-01-27T19:20:46.000Z,25.26
2019-01-27T19:30:45.000Z,25.26
2019-01-27T19:40:46.000Z,25.26
2019-01-27T19:50:45.000Z,25.22
2019-01-27T20:00:46.000Z,25.3
2019-01-27T20:10:45.000Z,25.34
2019-01-27T20:20:46.000Z,25.17
2019-01-27T20:40:46.000Z,25.14
2019-01-27T20:50:46.000Z,25.16
2019-01-27T21:00:46.000Z,25.13
2019-01-27T21:10:46.000Z,25.21
2019-01-27T21:20:46.000Z,25.13
2019-01-27T21:30:46.000Z,25.14
2019-01-27T21:40:47.000Z,25.14
2019-01-27T21:50:46.000Z,25.07
2019-01-27T22:00:46.000Z,25.05
2019-01-27T22:10:46.000Z,25.03
2019-01-27T22:20:46.000Z,24.98
2019-01-27T22:30:46.000Z,24.96
2019-01-27T22:40:46.000Z,24.95
2019-01-27T22:50:46.000Z,24.88
2019-01-27T23:00:46.000Z,24.82
2019-01-27T23:10:46.000Z,24.79
2019-01-27T23:20:46.000Z,24.73
2019-01-27T23:30:46.000Z,24.64
2019-01-27T23:40:46.000Z,24.61
2019-01-27T23:50:46.000Z,24.55
